createdAt,value
2019-05-19T00:01:57.840Z,13.90
2019-05-19T00:04:27.660Z,13.90
2019-05-19T00:06:57.721Z,13.80
2019-05-19T00:09:27.563Z,13.80
2019-05-19T00:11:57.473Z,13.80
2019-05-19T00:14:27.203Z,13.70
2019-05-19T00:16:57.030Z,13.70
2019-05-19T00:19:27.337Z,13.70
2019-05-19T00:21:57.157Z,13.60
2019-05-19T00:24:26.993Z,13.60
2019-05-19T00:26:56.780Z,13.60
2019-05-19T00:29:26.620Z,13.60
2019-05-19T00:31:56.470Z,13.50
2019-05-19T00:34:26.176Z,13.50
2019-05-19T00:36:55.936Z,13.50
2019-05-19T00:39:25.750Z,13.50
2019-05-19T00:41:55.522Z,13.40
2019-05-19T00:44:25.342Z,13.40
2019-05-19T00:46:55.029Z,13.40
2019-05-19T00:49:24.857Z,13.40
2019-05-19T00:51:55.420Z,13.30
2019-05-19T00:54:25.388Z,13.30
2019-05-19T00:56:56.383Z,13.30
2019-05-19T00:59:27.562Z,13.30
2019-05-19T01:01:57.283Z,13.20
2019-05-19T01:04:27.098Z,13.20
2019-05-19T01:06:57.062Z,13.20
2019-05-19T01:09:26.848Z,13.20
2019-05-19T01:11:56.605Z,13.20
2019-05-19T01:14:26.388Z,13.10
2019-05-19T01:16:56.010Z,13.10
2019-05-19T01:19:25.774Z,13.10
2019-05-19T01:21:58.030Z,13.10
2019-05-19T01:24:27.904Z,13.00
2019-05-19T01:26:57.986Z,13.00
2019-05-19T01:29:27.744Z,13.00
2019-05-19T01:31:57.503Z,13.00
2019-05-19T01:34:27.266Z,12.90
2019-05-19T01:36:57.001Z,12.90
2019-05-19T01:39:26.921Z,12.90
2019-05-19T01:41:56.597Z,12.90
2019-05-19T01:44:26.312Z,12.90
2019-05-19T01:46:56.067Z,12.80
2019-05-19T01:49:25.808Z,12.80
2019-05-19T01:51:55.994Z,12.80
2019-05-19T01:54:25.825Z,12.80
2019-05-19T01:56:55.570Z,12.80
2019-05-19T01:59:25.340Z,12.80
2019-05-19T02:01:55.173Z,12.80
2019-05-19T02:04:24.894Z,12.80
2019-05-19T02:06:54.797Z,12.70
2019-05-19T02:09:24.567Z,12.70
2019-05-19T02:11:54.286Z,12.70
2019-05-19T02:14:24.065Z,12.70
2019-05-19T02:16:53.864Z,12.70
2019-05-19T02:19:23.587Z,12.70
2019-05-19T02:21:53.467Z,12.60
2019-05-19T02:24:23.231Z,12.60
2019-05-19T02:26:53.081Z,12.70
2019-05-19T02:29:22.869Z,12.60
2019-05-19T02:31:52.664Z,12.60
2019-05-19T02:34:22.448Z,12.60
2019-05-19T02:36:52.271Z,12.60
2019-05-19T02:39:22.179Z,12.50
2019-05-19T02:41:54.204Z,12.50
2019-05-19T02:44:25.775Z,12.50
2019-05-19T02:46:57.098Z,12.50
2019-05-19T02:49:30.453Z,12.50
2019-05-19T02:52:03.513Z,12.50
2019-05-19T02:54:35.550Z,12.40
2019-05-19T02:57:06.064Z,12.40
2019-05-19T02:59:37.175Z,12.40
2019-05-19T03:02:10.745Z,12.40
2019-05-19T03:04:40.599Z,12.40
2019-05-19T03:07:10.405Z,12.40
2019-05-19T03:09:40.232Z,12.40
2019-05-19T03:12:09.991Z,12.40
2019-05-19T03:14:39.875Z,12.40
2019-05-19T03:17:09.598Z,12.40
2019-05-19T03:19:39.338Z,12.40
2019-05-19T03:22:09.187Z,12.40
2019-05-19T03:24:38.962Z,12.40
2019-05-19T03:27:08.810Z,12.40
2019-05-19T03:29:42.988Z,12.40
2019-05-19T03:32:23.090Z,12.40
2019-05-19T03:34:52.901Z,12.50
2019-05-19T03:37:22.817Z,12.50
2019-05-19T03:39:52.572Z,12.50
2019-05-19T03:42:22.425Z,12.60
2019-05-19T03:44:52.178Z,12.60
2019-05-19T03:47:21.954Z,12.70
2019-05-19T03:49:51.758Z,12.80
2019-05-19T03:52:21.519Z,12.90
2019-05-19T03:54:51.427Z,12.90
2019-05-19T03:57:21.215Z,13.00
2019-05-19T03:59:51.049Z,13.10
2019-05-19T04:02:20.815Z,13.20
2019-05-19T04:04:50.523Z,13.30
2019-05-19T04:07:20.258Z,13.40
2019-05-19T04:09:50.120Z,13.50
2019-05-19T04:12:20.143Z,13.60
2019-05-19T04:14:49.873Z,13.70
2019-05-19T04:17:19.601Z,13.80
2019-05-19T04:19:49.508Z,13.90
2019-05-19T04:22:19.261Z,14.00
2019-05-19T04:24:49.070Z,14.20
2019-05-19T04:27:18.834Z,14.30
2019-05-19T04:29:48.573Z,14.50
2019-05-19T04:32:18.427Z,14.60
2019-05-19T04:34:48.188Z,14.80
2019-05-19T04:37:17.991Z,14.90
2019-05-19T04:39:47.746Z,15.10
2019-05-19T04:42:17.589Z,15.20
2019-05-19T04:44:47.328Z,15.30
2019-05-19T04:47:17.445Z,15.40
2019-05-19T04:49:47.339Z,15.50
2019-05-19T04:52:17.344Z,15.70
2019-05-19T04:54:47.182Z,15.80
2019-05-19T04:57:17.004Z,15.90
2019-05-19T04:59:46.807Z,16.10
2019-05-19T05:02:17.077Z,16.20
2019-05-19T05:04:46.817Z,16.30
2019-05-19T05:07:16.681Z,16.50
2019-05-19T05:09:46.510Z,16.70
2019-05-19T05:12:16.264Z,16.90
2019-05-19T05:14:46.115Z,17.10
2019-05-19T05:17:35.047Z,17.30
2019-05-19T05:20:05.445Z,17.40
2019-05-19T05:22:35.128Z,17.70
2019-05-19T05:25:05.427Z,17.70
2019-05-19T05:27:35.199Z,17.80
2019-05-19T05:30:05.431Z,17.90
2019-05-19T05:32:35.224Z,18.00
2019-05-19T05:35:05.582Z,18.00
2019-05-19T05:37:35.348Z,18.10
2019-05-19T05:40:06.085Z,18.10
2019-05-19T05:42:35.815Z,18.20
2019-05-19T05:45:06.837Z,18.30
2019-05-19T05:47:36.855Z,18.40
2019-05-19T05:50:07.314Z,18.50
2019-05-19T05:52:38.830Z,18.60
2019-05-19T05:55:09.231Z,18.70
2019-05-19T05:57:39.232Z,18.80
2019-05-19T06:00:09.955Z,18.80
2019-05-19T06:02:39.714Z,18.90
2019-05-19T06:05:09.687Z,18.90
2019-05-19T06:07:39.438Z,19.00
2019-05-19T06:10:10.003Z,19.00
2019-05-19T06:12:39.782Z,19.10
2019-05-19T06:15:10.265Z,19.10
2019-05-19T06:17:39.984Z,19.10
2019-05-19T06:20:09.977Z,19.20
2019-05-19T06:22:55.016Z,19.30
2019-05-19T06:25:11.915Z,19.40
2019-05-19T06:27:41.685Z,19.50
2019-05-19T06:30:12.155Z,19.60
2019-05-19T06:32:46.027Z,19.70
2019-05-19T06:35:16.346Z,19.80
2019-05-19T06:37:46.087Z,19.90
2019-05-19T06:40:16.548Z,20.00
2019-05-19T06:42:46.409Z,20.10
2019-05-19T06:45:16.801Z,20.10
2019-05-19T06:47:46.596Z,20.20
2019-05-19T06:50:16.785Z,20.30
2019-05-19T06:52:46.596Z,20.40
2019-05-19T06:55:16.576Z,20.40
2019-05-19T06:57:46.344Z,20.50
2019-05-19T07:00:17.054Z,20.50
2019-05-19T07:02:47.218Z,20.60
2019-05-19T07:05:17.070Z,20.60
2019-05-19T07:07:46.904Z,20.70
2019-05-19T07:10:16.921Z,20.80
2019-05-19T07:12:46.688Z,20.80
2019-05-19T07:15:16.753Z,20.80
2019-05-19T07:17:46.583Z,20.90
2019-05-19T07:20:16.437Z,21.00
2019-05-19T07:22:46.167Z,21.10
2019-05-19T07:25:16.080Z,21.20
2019-05-19T07:27:45.965Z,21.40
2019-05-19T07:30:16.243Z,21.50
2019-05-19T07:32:46.095Z,21.60
2019-05-19T07:35:16.012Z,21.80
2019-05-19T07:37:45.747Z,21.90
2019-05-19T07:40:15.703Z,22.00
2019-05-19T07:42:45.414Z,22.10
2019-05-19T07:45:16.026Z,22.20
2019-05-19T07:47:45.832Z,22.20
2019-05-19T07:50:15.845Z,22.20
2019-05-19T07:52:45.649Z,22.30
2019-05-19T07:55:15.649Z,22.40
2019-05-19T07:57:45.405Z,22.40
2019-05-19T08:00:15.783Z,22.50
2019-05-19T08:02:45.740Z,22.70
2019-05-19T08:05:15.660Z,22.90
2019-05-19T08:07:45.428Z,23.00
2019-05-19T08:10:15.625Z,23.10
2019-05-19T08:12:45.789Z,23.20
2019-05-19T08:15:15.840Z,23.30
2019-05-19T08:17:45.582Z,23.40
2019-05-19T08:20:17.208Z,23.50
2019-05-19T08:22:46.965Z,23.60
2019-05-19T08:25:16.799Z,23.70
2019-05-19T08:27:46.546Z,23.80
2019-05-19T08:30:17.082Z,23.80
2019-05-19T08:32:47.127Z,23.80
2019-05-19T08:35:17.036Z,23.80
2019-05-19T08:37:46.804Z,23.90
2019-05-19T08:40:16.816Z,23.90
2019-05-19T08:42:46.821Z,23.90
2019-05-19T08:45:16.783Z,23.90
2019-05-19T08:47:46.569Z,24.00
2019-05-19T08:50:16.852Z,24.10
2019-05-19T08:52:46.608Z,24.20
2019-05-19T08:55:16.688Z,24.20
2019-05-19T08:57:46.504Z,24.30
2019-05-19T09:00:16.774Z,24.40
2019-05-19T09:02:46.612Z,24.40
2019-05-19T09:05:16.542Z,24.50
2019-05-19T09:07:46.394Z,24.60
2019-05-19T09:10:16.612Z,24.70
2019-05-19T09:12:46.295Z,24.70
2019-05-19T09:15:16.351Z,24.80
2019-05-19T09:17:46.205Z,24.80
2019-05-19T09:20:16.199Z,24.80
2019-05-19T09:22:46.268Z,24.90
2019-05-19T09:25:16.026Z,24.90
2019-05-19T09:27:45.815Z,25.00
2019-05-19T09:30:16.449Z,25.00
2019-05-19T09:32:46.273Z,25.00
2019-05-19T09:35:16.098Z,25.00
2019-05-19T09:37:45.890Z,25.10
2019-05-19T09:40:16.021Z,25.20
2019-05-19T09:42:45.813Z,25.30
2019-05-19T09:45:16.165Z,25.30
2019-05-19T09:47:45.913Z,25.40
2019-05-19T09:50:16.419Z,25.50
2019-05-19T09:52:46.354Z,25.60
2019-05-19T09:55:16.170Z,25.70
2019-05-19T09:57:45.914Z,25.90
2019-05-19T10:00:16.712Z,26.00
2019-05-19T10:02:46.743Z,26.20
2019-05-19T10:05:16.776Z,26.40
2019-05-19T10:07:46.665Z,26.60
2019-05-19T10:10:49.489Z,26.80
2019-05-19T10:13:19.198Z,27.10
2019-05-19T10:15:48.962Z,27.30
2019-05-19T10:18:18.703Z,27.50
2019-05-19T10:20:50.477Z,27.70
2019-05-19T10:23:20.355Z,27.90
2019-05-19T10:25:50.327Z,28.20
2019-05-19T10:28:20.061Z,28.50
2019-05-19T10:30:50.011Z,28.70
2019-05-19T10:33:19.788Z,29.10
2019-05-19T10:35:49.492Z,29.40
2019-05-19T10:38:19.538Z,29.70
2019-05-19T10:40:49.392Z,30.10
2019-05-19T10:43:19.165Z,30.50
2019-05-19T10:45:59.651Z,30.90
2019-05-19T10:48:29.537Z,31.40
2019-05-19T10:50:59.365Z,31.80
2019-05-19T10:53:29.150Z,32.30
2019-05-19T10:55:59.055Z,32.80
2019-05-19T10:58:28.858Z,33.10
2019-05-19T11:00:58.769Z,33.00
2019-05-19T11:03:28.487Z,32.80
2019-05-19T11:05:58.293Z,32.80
2019-05-19T11:08:28.017Z,32.90
2019-05-19T11:10:57.832Z,32.90
2019-05-19T11:13:27.740Z,32.80
2019-05-19T11:15:57.555Z,32.40
2019-05-19T11:18:27.261Z,32.30
2019-05-19T11:20:57.076Z,32.40
2019-05-19T11:23:26.856Z,32.70
2019-05-19T11:25:56.650Z,32.90
2019-05-19T11:28:26.761Z,32.80
2019-05-19T11:30:56.816Z,32.60
2019-05-19T11:33:26.624Z,32.60
2019-05-19T11:35:56.533Z,33.20
2019-05-19T11:38:26.241Z,34.30
2019-05-19T11:40:55.979Z,35.20
2019-05-19T11:43:25.741Z,36.10
2019-05-19T11:45:55.481Z,36.90
2019-05-19T11:48:25.238Z,37.50
2019-05-19T11:50:55.013Z,37.70
2019-05-19T11:53:25.046Z,38.50
2019-05-19T11:56:06.147Z,39.40
2019-05-19T11:58:26.535Z,39.60
2019-05-19T12:00:56.296Z,40.40
2019-05-19T12:03:26.161Z,41.30
2019-05-19T12:05:55.891Z,41.90
2019-05-19T12:08:25.695Z,42.30
2019-05-19T12:10:55.420Z,43.20
2019-05-19T12:13:25.422Z,44.10
2019-05-19T12:15:55.134Z,44.70
2019-05-19T12:18:24.837Z,45.30
2019-05-19T12:20:54.570Z,46.20
2019-05-19T12:23:24.423Z,46.70
2019-05-19T12:25:54.166Z,47.10
2019-05-19T12:28:23.905Z,47.90
2019-05-19T12:30:53.926Z,48.30
2019-05-19T12:33:23.702Z,47.40
2019-05-19T12:35:53.700Z,47.00
2019-05-19T12:38:23.446Z,47.30
2019-05-19T12:40:53.207Z,48.00
2019-05-19T12:43:23.018Z,48.80
2019-05-19T12:45:52.809Z,49.20
2019-05-19T12:48:22.660Z,49.80
2019-05-19T12:50:52.434Z,50.10
2019-05-19T12:53:22.220Z,50.30
2019-05-19T12:55:52.224Z,50.70
2019-05-19T12:58:22.056Z,50.70
2019-05-19T13:00:51.823Z,51.10
2019-05-19T13:03:21.561Z,51.30
2019-05-19T13:05:51.430Z,51.80
2019-05-19T13:08:21.156Z,52.60
2019-05-19T13:10:50.899Z,53.10
2019-05-19T13:13:20.994Z,53.60
2019-05-19T13:15:50.750Z,54.20
2019-05-19T13:18:20.479Z,54.20
2019-05-19T13:20:50.172Z,54.20
2019-05-19T13:23:20.003Z,53.00
2019-05-19T13:25:49.720Z,52.10
2019-05-19T13:28:19.404Z,51.90
2019-05-19T13:30:49.126Z,52.50
2019-05-19T13:33:18.851Z,53.60
2019-05-19T13:35:48.591Z,54.10
2019-05-19T13:38:18.394Z,54.40
2019-05-19T13:40:48.252Z,54.10
2019-05-19T13:43:18.036Z,52.10
2019-05-19T13:45:47.800Z,49.20
2019-05-19T13:48:17.540Z,46.50
2019-05-19T13:50:47.360Z,44.10
2019-05-19T13:53:17.119Z,42.00
2019-05-19T13:55:46.853Z,40.40
2019-05-19T13:58:16.551Z,38.90
2019-05-19T14:00:46.365Z,37.70
2019-05-19T14:03:16.054Z,36.50
2019-05-19T14:05:45.805Z,35.80
2019-05-19T14:08:15.619Z,35.40
2019-05-19T14:10:45.446Z,35.30
2019-05-19T14:13:15.213Z,36.10
2019-05-19T14:15:45.189Z,37.50
2019-05-19T14:18:14.975Z,37.40
2019-05-19T14:20:44.658Z,36.70
2019-05-19T14:23:14.400Z,35.40
2019-05-19T14:25:44.199Z,34.00
2019-05-19T14:28:14.148Z,33.00
2019-05-19T14:30:43.948Z,32.20
2019-05-19T14:33:13.969Z,31.60
2019-05-19T14:35:43.701Z,31.10
2019-05-19T14:38:13.463Z,31.60
2019-05-19T14:40:44.010Z,32.50
2019-05-19T14:43:13.749Z,32.90
2019-05-19T14:45:43.537Z,32.60
2019-05-19T14:48:13.582Z,32.20
2019-05-19T14:50:43.301Z,31.70
2019-05-19T14:53:13.035Z,31.20
2019-05-19T14:55:43.100Z,30.60
2019-05-19T14:58:12.866Z,30.10
2019-05-19T15:00:42.712Z,29.50
2019-05-19T15:03:12.437Z,29.10
2019-05-19T15:05:42.254Z,28.70
2019-05-19T15:08:12.011Z,28.20
2019-05-19T15:10:41.782Z,27.90
2019-05-19T15:13:11.592Z,27.80
2019-05-19T15:15:41.276Z,27.80
2019-05-19T15:18:10.990Z,28.00
2019-05-19T15:20:40.720Z,29.00
2019-05-19T15:23:10.418Z,30.20
2019-05-19T15:25:40.385Z,30.50
2019-05-19T15:28:10.231Z,30.20
2019-05-19T15:30:39.966Z,29.80
2019-05-19T15:33:09.685Z,29.10
2019-05-19T15:35:39.401Z,28.60
2019-05-19T15:38:09.464Z,28.10
2019-05-19T15:40:39.279Z,27.70
2019-05-19T15:43:09.030Z,27.40
2019-05-19T15:45:38.954Z,27.20
2019-05-19T15:48:08.817Z,27.20
2019-05-19T15:50:38.581Z,27.20
2019-05-19T15:53:08.439Z,27.20
2019-05-19T15:55:38.195Z,27.30
2019-05-19T15:58:16.185Z,27.50
2019-05-19T16:00:39.437Z,27.70
2019-05-19T16:03:09.248Z,27.90
2019-05-19T16:05:38.936Z,28.10
2019-05-19T16:08:08.636Z,28.20
2019-05-19T16:10:38.410Z,28.30
2019-05-19T16:13:08.181Z,28.80
2019-05-19T16:15:37.946Z,29.40
2019-05-19T16:18:07.805Z,29.90
2019-05-19T16:20:37.555Z,30.00
2019-05-19T16:23:07.320Z,30.30
2019-05-19T16:25:37.039Z,30.70
2019-05-19T16:28:06.789Z,30.70
2019-05-19T16:30:36.584Z,30.40
2019-05-19T16:33:06.590Z,30.00
2019-05-19T16:35:36.368Z,29.70
2019-05-19T16:38:06.244Z,29.40
2019-05-19T16:40:36.033Z,29.20
2019-05-19T16:43:05.919Z,28.90
2019-05-19T16:45:35.757Z,28.50
2019-05-19T16:48:05.731Z,28.10
2019-05-19T16:50:35.570Z,27.70
2019-05-19T16:53:05.360Z,27.40
2019-05-19T16:55:35.150Z,27.10
2019-05-19T16:58:19.914Z,26.80
2019-05-19T17:00:36.765Z,26.50
2019-05-19T17:03:06.553Z,26.40
2019-05-19T17:05:36.367Z,26.20
2019-05-19T17:08:06.323Z,26.30
2019-05-19T17:10:36.114Z,26.40
2019-05-19T17:13:05.888Z,26.40
2019-05-19T17:15:35.742Z,26.40
2019-05-19T17:18:24.741Z,26.30
2019-05-19T17:20:54.512Z,26.30
2019-05-19T17:23:25.782Z,26.10
2019-05-19T17:25:55.546Z,26.00
2019-05-19T17:28:25.338Z,25.90
2019-05-19T17:30:55.347Z,25.80
2019-05-19T17:33:25.033Z,25.70
2019-05-19T17:35:54.803Z,25.60
2019-05-19T17:38:24.616Z,25.60
2019-05-19T17:40:54.388Z,25.60
2019-05-19T17:43:24.113Z,25.80
2019-05-19T17:45:53.914Z,26.30
2019-05-19T17:48:26.642Z,26.80
2019-05-19T17:50:55.074Z,27.40
2019-05-19T17:53:25.045Z,27.90
2019-05-19T17:55:56.534Z,28.40
2019-05-19T17:58:27.956Z,28.70
2019-05-19T18:00:57.688Z,29.00
2019-05-19T18:03:27.641Z,29.10
2019-05-19T18:05:57.401Z,29.10
2019-05-19T18:08:27.221Z,28.90
2019-05-19T18:10:56.906Z,28.50
2019-05-19T18:13:26.701Z,28.20
2019-05-19T18:15:56.479Z,27.80
2019-05-19T18:18:26.411Z,27.40
2019-05-19T18:20:56.130Z,27.00
2019-05-19T18:23:45.098Z,26.50
2019-05-19T18:26:14.892Z,26.00
2019-05-19T18:28:44.689Z,25.60
2019-05-19T18:31:14.574Z,25.20
2019-05-19T18:33:44.275Z,24.90
2019-05-19T18:36:13.938Z,24.60
2019-05-19T18:38:43.671Z,24.20
2019-05-19T18:41:13.401Z,24.00
2019-05-19T18:43:43.432Z,23.70
2019-05-19T18:46:13.218Z,23.50
2019-05-19T18:48:42.906Z,23.30
2019-05-19T18:51:12.714Z,23.10
2019-05-19T18:53:42.378Z,23.00
2019-05-19T18:56:12.385Z,22.80
2019-05-19T18:58:42.111Z,22.70
2019-05-19T19:01:11.857Z,22.60
2019-05-19T19:03:41.518Z,22.50
2019-05-19T19:06:11.198Z,22.40
2019-05-19T19:08:40.878Z,22.30
2019-05-19T19:11:10.618Z,22.30
2019-05-19T19:13:40.298Z,22.20
2019-05-19T19:16:09.985Z,22.10
2019-05-19T19:18:39.657Z,22.00
2019-05-19T19:21:09.391Z,22.00
2019-05-19T19:23:39.097Z,22.00
2019-05-19T19:26:09.024Z,21.90
2019-05-19T19:28:38.730Z,21.80
2019-05-19T19:31:08.386Z,21.80
2019-05-19T19:33:38.066Z,21.70
2019-05-19T19:36:07.781Z,21.60
2019-05-19T19:38:37.434Z,21.50
2019-05-19T19:41:07.238Z,21.40
2019-05-19T19:43:36.899Z,21.30
2019-05-19T19:46:06.716Z,21.30
2019-05-19T19:48:36.426Z,21.20
2019-05-19T19:51:06.140Z,21.20
2019-05-19T19:53:36.023Z,21.10
2019-05-19T19:56:05.725Z,21.10
2019-05-19T19:58:35.374Z,21.00
2019-05-19T20:01:05.130Z,21.00
2019-05-19T20:03:39.829Z,21.00
2019-05-19T20:06:06.452Z,21.00
